createdAt,value
2018-05-21T00:01:04.119Z,45.47
2018-05-21T00:04:13.456Z,45.07
2018-05-21T00:07:16.049Z,45.52
2018-05-21T00:10:18.688Z,45.53
2018-05-21T00:13:21.227Z,45.52
2018-05-21T00:16:23.709Z,46.66
2018-05-21T00:19:26.217Z,45.79
2018-05-21T00:22:28.719Z,46.08
2018-05-21T00:25:31.226Z,46.07
2018-05-21T00:28:33.806Z,46.11
2018-05-21T00:31:36.358Z,45.92
2018-05-21T00:34:38.934Z,46.11
2018-05-21T00:37:41.497Z,45.88
2018-05-21T00:40:43.999Z,45.60
2018-05-21T00:43:46.588Z,46.09
2018-05-21T00:46:49.135Z,46.03
2018-05-21T00:49:51.648Z,45.86
2018-05-21T00:52:54.187Z,47.07
2018-05-21T00:55:56.687Z,46.62
2018-05-21T00:58:59.210Z,46.37
2018-05-21T01:02:01.741Z,46.65
2018-05-21T01:05:04.259Z,46.54
2018-05-21T01:08:06.801Z,46.57
2018-05-21T01:11:09.296Z,47.00
2018-05-21T01:14:11.809Z,47.50
2018-05-21T01:17:14.344Z,46.99
2018-05-21T01:20:16.855Z,46.74
2018-05-21T01:23:19.411Z,47.67
2018-05-21T01:26:21.949Z,48.02
2018-05-21T01:29:24.551Z,47.91
2018-05-21T01:32:27.084Z,47.50
2018-05-21T01:35:29.631Z,46.96
2018-05-21T01:38:32.176Z,46.97
2018-05-21T01:41:34.739Z,47.03
2018-05-21T01:44:37.229Z,48.04
2018-05-21T01:47:39.723Z,48.36
2018-05-21T01:50:42.217Z,47.27
2018-05-21T01:53:44.738Z,47.19
2018-05-21T01:56:47.278Z,47.50
2018-05-21T01:59:49.799Z,47.35
2018-05-21T02:02:52.952Z,47.73
2018-05-21T02:05:55.504Z,47.43
2018-05-21T02:08:58.012Z,48.13
2018-05-21T02:12:00.505Z,47.88
2018-05-21T02:15:03.047Z,48.21
2018-05-21T02:18:05.568Z,48.16
2018-05-21T02:21:08.093Z,47.90
2018-05-21T02:24:10.596Z,47.63
2018-05-21T02:27:13.118Z,48.15
2018-05-21T02:30:15.688Z,47.65
2018-05-21T02:33:18.213Z,48.12
2018-05-21T02:36:20.723Z,47.95
2018-05-21T02:39:23.208Z,48.22
2018-05-21T02:42:25.745Z,48.51
2018-05-21T02:45:28.271Z,48.57
2018-05-21T02:48:30.825Z,48.74
2018-05-21T02:51:33.336Z,48.00
2018-05-21T02:54:35.900Z,48.67
2018-05-21T02:57:38.436Z,48.87
2018-05-21T03:00:40.950Z,49.28
2018-05-21T03:03:43.427Z,48.98
2018-05-21T03:06:45.981Z,49.36
2018-05-21T03:09:48.555Z,48.94
2018-05-21T03:12:51.052Z,48.89
2018-05-21T03:15:53.638Z,49.13
2018-05-21T03:18:56.163Z,49.60
2018-05-21T03:21:59.211Z,49.55
2018-05-21T03:25:01.784Z,49.67
2018-05-21T03:28:04.266Z,49.69
2018-05-21T03:31:06.764Z,50.15
2018-05-21T03:34:09.416Z,50.24
2018-05-21T03:37:11.927Z,50.22
2018-05-21T03:40:14.478Z,50.93
2018-05-21T03:43:16.963Z,50.95
2018-05-21T03:46:19.481Z,51.23
2018-05-21T03:49:22.017Z,51.00
2018-05-21T03:52:24.519Z,51.60
2018-05-21T03:55:27.091Z,51.66
2018-05-21T04:02:26.123Z,52.20
2018-05-21T04:05:29.734Z,52.31
2018-05-21T04:08:32.282Z,52.93
2018-05-21T04:11:34.882Z,53.08
2018-05-21T04:14:38.075Z,53.25
2018-05-21T04:17:40.575Z,53.55
2018-05-21T04:20:43.126Z,53.63
2018-05-21T04:23:45.638Z,54.01
2018-05-21T04:26:48.172Z,54.14
2018-05-21T04:29:50.684Z,54.26
2018-05-21T04:32:53.555Z,54.87
2018-05-21T04:35:56.072Z,54.69
2018-05-21T04:38:58.610Z,54.83
2018-05-21T04:42:01.132Z,54.87
2018-05-21T04:45:03.669Z,55.21
2018-05-21T04:48:06.154Z,55.34
2018-05-21T04:51:08.714Z,55.45
2018-05-21T04:54:11.187Z,55.56
2018-05-21T04:57:13.680Z,55.47
2018-05-21T05:00:16.233Z,55.70
2018-05-21T05:03:18.751Z,55.71
2018-05-21T05:06:21.294Z,55.28
2018-05-21T05:09:23.812Z,55.06
2018-05-21T05:12:26.364Z,54.82
2018-05-21T05:15:28.868Z,54.78
2018-05-21T05:18:31.360Z,54.99
2018-05-21T05:21:33.916Z,54.96
2018-05-21T05:24:36.402Z,54.83
2018-05-21T05:27:39.008Z,54.86
2018-05-21T05:30:41.513Z,54.54
2018-05-21T05:33:44.069Z,54.50
2018-05-21T05:36:46.608Z,54.25
2018-05-21T05:39:49.176Z,53.79
2018-05-21T05:42:51.679Z,52.75
2018-05-21T05:45:54.215Z,52.61
2018-05-21T05:48:56.815Z,51.89
2018-05-21T05:51:59.317Z,52.01
2018-05-21T05:55:01.849Z,51.34
2018-05-21T05:58:04.633Z,51.30
2018-05-21T06:01:07.154Z,51.55
2018-05-21T06:04:09.698Z,52.14
2018-05-21T06:07:12.259Z,51.45
2018-05-21T06:10:14.793Z,50.80
2018-05-21T06:13:17.363Z,50.48
2018-05-21T06:16:20.163Z,49.82
2018-05-21T06:19:22.698Z,49.42
2018-05-21T06:22:25.207Z,50.00
2018-05-21T06:25:27.736Z,50.64
2018-05-21T06:28:30.288Z,50.11
2018-05-21T06:31:32.882Z,48.82
2018-05-21T06:34:35.527Z,48.56
2018-05-21T06:37:38.148Z,48.80
2018-05-21T06:40:40.745Z,48.26
2018-05-21T06:43:44.171Z,48.34
2018-05-21T06:46:46.773Z,47.30
2018-05-21T06:49:49.319Z,46.83
2018-05-21T06:52:51.906Z,46.08
2018-05-21T06:55:54.490Z,46.26
2018-05-21T06:58:57.091Z,46.00
2018-05-21T07:01:59.684Z,45.02
2018-05-21T07:05:03.923Z,44.92
2018-05-21T07:08:07.378Z,45.12
2018-05-21T07:11:10.066Z,45.02
2018-05-21T07:14:13.520Z,45.23
2018-05-21T07:17:16.073Z,45.11
2018-05-21T07:20:18.668Z,44.24
2018-05-21T07:23:21.207Z,44.08
2018-05-21T07:26:23.740Z,42.89
2018-05-21T07:29:26.445Z,42.09
2018-05-21T07:32:30.105Z,42.93
2018-05-21T07:35:32.757Z,42.92
2018-05-21T07:38:35.285Z,42.37
2018-05-21T07:41:37.998Z,42.38
2018-05-21T07:44:40.488Z,42.48
2018-05-21T07:47:43.013Z,41.34
2018-05-21T07:50:46.116Z,41.95
2018-05-21T07:53:48.637Z,41.88
2018-05-21T07:56:51.310Z,41.15
2018-05-21T07:59:54.113Z,40.83
2018-05-21T08:02:56.664Z,40.15
2018-05-21T08:06:00.164Z,40.03
2018-05-21T08:09:02.758Z,39.59
2018-05-21T08:12:05.378Z,39.33
2018-05-21T08:15:07.949Z,38.05
2018-05-21T08:18:10.484Z,38.16
2018-05-21T08:21:12.987Z,38.32
2018-05-21T08:24:15.547Z,37.27
2018-05-21T08:27:18.119Z,37.90
2018-05-21T08:30:20.670Z,37.34
2018-05-21T08:33:23.237Z,37.34
2018-05-21T08:36:25.900Z,36.80
2018-05-21T08:39:28.520Z,36.83
2018-05-21T08:42:31.109Z,36.84
2018-05-21T08:45:33.723Z,36.98
2018-05-21T08:48:36.423Z,36.52
2018-05-21T08:51:39.031Z,36.42
2018-05-21T08:54:41.579Z,37.40
2018-05-21T08:57:44.184Z,35.55
2018-05-21T09:00:46.818Z,35.17
2018-05-21T09:03:49.418Z,35.82
2018-05-21T09:06:51.983Z,35.59
2018-05-21T09:09:54.612Z,35.43
2018-05-21T09:12:57.245Z,34.73
2018-05-21T09:16:01.073Z,34.92
2018-05-21T09:19:04.871Z,35.05
2018-05-21T09:22:07.437Z,33.98
2018-05-21T09:25:10.155Z,34.03
2018-05-21T09:28:12.906Z,33.80
2018-05-21T09:31:15.538Z,32.78
2018-05-21T09:34:18.136Z,33.61
2018-05-21T09:37:21.281Z,32.82
2018-05-21T09:40:24.017Z,32.85
2018-05-21T09:43:26.603Z,33.25
2018-05-21T09:46:29.134Z,33.55
2018-05-21T09:49:31.697Z,33.23
2018-05-21T09:52:35.100Z,32.53
2018-05-21T09:55:37.711Z,31.44
2018-05-21T09:58:40.265Z,31.88
2018-05-21T10:01:42.871Z,31.96
2018-05-21T10:04:46.101Z,31.95
2018-05-21T10:07:49.661Z,32.35
2018-05-21T10:10:52.348Z,32.14
2018-05-21T10:13:54.932Z,32.17
2018-05-21T10:16:57.616Z,31.96
2018-05-21T10:20:00.196Z,32.37
2018-05-21T10:23:02.870Z,32.58
2018-05-21T10:26:05.537Z,32.41
2018-05-21T10:29:08.103Z,32.73
2018-05-21T10:32:10.693Z,32.79
2018-05-21T10:35:19.357Z,33.24
2018-05-21T10:38:21.911Z,32.33
2018-05-21T10:41:24.591Z,32.26
2018-05-21T10:44:27.166Z,31.70
2018-05-21T10:47:29.784Z,31.81
2018-05-21T10:50:32.361Z,32.20
2018-05-21T10:53:34.903Z,32.57
2018-05-21T10:56:37.447Z,31.92
2018-05-21T10:59:40.005Z,30.92
2018-05-21T11:02:43.159Z,30.69
2018-05-21T11:05:45.754Z,31.33
2018-05-21T11:08:48.539Z,30.52
2018-05-21T11:11:51.072Z,29.16
2018-05-21T11:14:53.619Z,28.41
2018-05-21T11:17:56.243Z,28.86
2018-05-21T11:20:58.830Z,28.57
2018-05-21T11:24:01.364Z,27.43
2018-05-21T11:27:03.970Z,27.88
2018-05-21T11:30:06.525Z,28.21
2018-05-21T11:33:09.069Z,27.19
2018-05-21T11:36:11.705Z,27.42
2018-05-21T11:39:14.258Z,27.12
2018-05-21T11:42:16.807Z,27.01
2018-05-21T11:45:19.309Z,26.94
2018-05-21T11:48:21.934Z,27.23
2018-05-21T11:51:25.452Z,27.22
2018-05-21T11:54:28.868Z,26.99
2018-05-21T11:57:32.621Z,27.18
2018-05-21T12:00:36.166Z,28.43
2018-05-21T12:03:39.373Z,28.31
2018-05-21T12:06:42.144Z,28.96
2018-05-21T12:09:44.751Z,28.33
2018-05-21T12:12:47.779Z,28.85
2018-05-21T12:15:51.316Z,28.87
2018-05-21T12:18:54.956Z,28.62
2018-05-21T12:21:57.720Z,28.19
2018-05-21T12:25:00.503Z,27.83
2018-05-21T12:28:03.612Z,27.92
2018-05-21T12:31:07.005Z,28.53
2018-05-21T12:34:09.554Z,28.78
2018-05-21T12:37:12.262Z,28.29
2018-05-21T12:40:14.953Z,28.14
2018-05-21T12:43:17.626Z,28.37
2018-05-21T12:46:20.337Z,27.35
2018-05-21T12:49:23.134Z,27.81
2018-05-21T12:52:30.851Z,27.78
2018-05-21T12:55:34.536Z,27.65
2018-05-21T12:58:37.320Z,27.39
2018-05-21T13:01:39.923Z,27.92
2018-05-21T13:04:44.306Z,28.14
2018-05-21T13:07:46.895Z,28.09
2018-05-21T13:10:49.583Z,27.70
2018-05-21T13:13:52.189Z,27.50
2018-05-21T13:16:54.748Z,28.10
2018-05-21T13:19:57.315Z,27.99
2018-05-21T13:22:59.900Z,27.44
2018-05-21T13:26:02.513Z,26.80
2018-05-21T13:29:05.094Z,26.99
2018-05-21T13:32:07.697Z,27.13
2018-05-21T13:35:10.299Z,27.11
2018-05-21T13:38:12.918Z,27.33
2018-05-21T13:41:15.510Z,27.33
2018-05-21T13:44:18.582Z,26.80
2018-05-21T13:47:21.551Z,26.65
2018-05-21T13:50:24.170Z,27.45
2018-05-21T13:53:26.821Z,27.25
2018-05-21T13:56:29.412Z,26.32
2018-05-21T13:59:32.017Z,26.52
2018-05-21T14:02:34.580Z,26.44
2018-05-21T14:05:37.197Z,26.39
2018-05-21T14:08:39.733Z,26.92
2018-05-21T14:11:42.326Z,27.13
2018-05-21T14:14:44.898Z,26.67
2018-05-21T14:17:47.493Z,26.58
2018-05-21T14:20:50.030Z,26.44
2018-05-21T14:23:52.608Z,26.30
2018-05-21T14:26:55.215Z,26.62
2018-05-21T14:29:57.865Z,26.60
2018-05-21T14:33:00.472Z,26.60
2018-05-21T14:36:03.085Z,27.08
2018-05-21T14:39:05.636Z,26.91
2018-05-21T14:42:08.221Z,26.78
2018-05-21T14:45:10.769Z,26.36
2018-05-21T14:48:13.373Z,26.26
2018-05-21T14:51:15.920Z,26.03
2018-05-21T14:54:18.501Z,26.05
2018-05-21T14:57:21.079Z,26.35
2018-05-21T15:00:23.686Z,26.04
2018-05-21T15:03:26.250Z,25.91
2018-05-21T15:06:28.816Z,27.29
2018-05-21T15:09:31.511Z,26.84
2018-05-21T15:12:35.552Z,25.86
2018-05-21T15:15:38.178Z,25.86
2018-05-21T15:18:40.704Z,26.93
2018-05-21T15:21:43.356Z,26.94
2018-05-21T15:24:47.261Z,26.82
2018-05-21T15:27:49.898Z,26.89
2018-05-21T15:30:53.568Z,27.37
2018-05-21T15:33:56.231Z,27.44
2018-05-21T15:36:58.762Z,27.10
2018-05-21T15:40:01.394Z,26.67
2018-05-21T15:43:03.991Z,26.65
2018-05-21T15:46:07.503Z,27.23
2018-05-21T15:49:10.145Z,27.40
2018-05-21T15:52:12.705Z,26.47
2018-05-21T15:55:15.322Z,26.58
2018-05-21T15:58:18.215Z,26.51
2018-05-21T16:01:20.813Z,26.85
2018-05-21T16:04:23.529Z,26.99
2018-05-21T16:07:26.934Z,27.15
2018-05-21T16:10:29.563Z,27.76
2018-05-21T16:13:32.575Z,27.93
2018-05-21T16:16:36.803Z,28.03
2018-05-21T16:19:40.540Z,28.20
2018-05-21T16:22:44.637Z,28.17
2018-05-21T16:25:51.377Z,28.32
2018-05-21T16:28:54.436Z,28.06
2018-05-21T16:31:57.018Z,28.37
2018-05-21T16:34:59.740Z,28.46
2018-05-21T16:38:02.675Z,28.29
2018-05-21T16:41:05.409Z,28.56
2018-05-21T16:44:08.236Z,28.50
2018-05-21T16:47:10.868Z,28.44
2018-05-21T16:50:13.494Z,28.37
2018-05-21T16:53:16.385Z,27.90
2018-05-21T16:56:19.325Z,28.58
2018-05-21T16:59:21.889Z,28.12
2018-05-21T17:02:24.705Z,28.14
2018-05-21T17:05:27.379Z,28.03
2018-05-21T17:08:30.091Z,27.99
2018-05-21T17:11:32.937Z,27.99
2018-05-21T17:14:35.623Z,28.07
2018-05-21T17:17:38.275Z,28.42
2018-05-21T17:20:40.897Z,28.79
2018-05-21T17:23:43.752Z,28.63
2018-05-21T17:26:46.442Z,29.04
2018-05-21T17:29:49.102Z,29.23
2018-05-21T17:32:51.784Z,29.32
2018-05-21T17:35:54.412Z,29.10
2018-05-21T17:38:57.065Z,28.74
2018-05-21T17:42:01.223Z,28.95
2018-05-21T17:45:08.091Z,29.24
2018-05-21T17:48:11.704Z,29.42
2018-05-21T17:51:14.321Z,29.92
2018-05-21T17:54:17.003Z,29.97
2018-05-21T17:57:19.672Z,30.14
2018-05-21T18:00:22.319Z,30.24
2018-05-21T18:03:25.800Z,30.52
2018-05-21T18:06:28.531Z,30.65
2018-05-21T18:09:31.479Z,31.06
2018-05-21T18:12:34.207Z,31.00
2018-05-21T18:15:36.880Z,31.61
2018-05-21T18:18:40.688Z,31.40
2018-05-21T18:21:44.128Z,31.49
2018-05-21T18:24:46.813Z,31.80
2018-05-21T18:27:50.142Z,31.91
2018-05-21T18:30:53.211Z,32.23
2018-05-21T18:33:57.178Z,33.39
2018-05-21T18:37:01.880Z,32.73
2018-05-21T18:40:04.571Z,32.70
2018-05-21T18:43:07.409Z,32.87
2018-05-21T18:46:12.198Z,32.88
2018-05-21T18:49:15.101Z,33.46
2018-05-21T18:52:17.773Z,35.25
2018-05-21T18:55:22.742Z,33.53
2018-05-21T18:58:25.553Z,35.31
2018-05-21T19:01:28.279Z,35.71
2018-05-21T19:04:30.913Z,35.78
2018-05-21T19:07:34.465Z,34.45
2018-05-21T19:10:37.218Z,36.00
2018-05-21T19:13:39.895Z,36.14
2018-05-21T19:16:42.734Z,36.34
2018-05-21T19:19:45.434Z,37.01
2018-05-21T19:22:48.104Z,36.22
2018-05-21T19:25:50.788Z,37.00
2018-05-21T19:28:53.473Z,36.77
2018-05-21T19:31:56.216Z,37.95
2018-05-21T19:34:59.314Z,37.29
2018-05-21T19:38:02.067Z,37.55
2018-05-21T19:41:04.660Z,37.43
2018-05-21T19:44:07.463Z,38.40
2018-05-21T19:47:11.456Z,37.94
2018-05-21T19:50:14.269Z,38.81
2018-05-21T19:53:16.900Z,38.17
2018-05-21T19:56:19.478Z,39.94
2018-05-21T19:59:22.066Z,38.84
2018-05-21T20:02:25.497Z,38.57
2018-05-21T20:05:28.142Z,39.98
2018-05-21T20:08:30.898Z,39.34
2018-05-21T20:14:58.374Z,38.96
2018-05-21T20:18:03.459Z,39.73
2018-05-21T20:21:07.844Z,40.54
2018-05-21T20:24:11.676Z,41.46
2018-05-21T20:27:17.313Z,43.13
2018-05-21T20:30:22.653Z,42.42
2018-05-21T20:33:25.302Z,41.00
2018-05-21T20:36:27.972Z,41.38
2018-05-21T20:39:30.672Z,43.08
2018-05-21T20:42:33.346Z,41.92
2018-05-21T20:45:36.044Z,41.92
2018-05-21T20:48:38.717Z,42.22
2018-05-21T20:51:41.494Z,41.18
2018-05-21T20:54:44.150Z,41.75
2018-05-21T20:57:46.743Z,42.21
2018-05-21T21:00:49.411Z,42.72
2018-05-21T21:03:51.942Z,42.49
2018-05-21T21:06:54.614Z,42.49
2018-05-21T21:09:57.309Z,42.31
2018-05-21T21:12:59.955Z,43.09
2018-05-21T21:16:03.689Z,43.45
2018-05-21T21:19:07.683Z,42.96
2018-05-21T21:22:10.385Z,43.04
2018-05-21T21:25:13.128Z,43.09
2018-05-21T21:28:15.723Z,43.22
2018-05-21T21:31:18.398Z,43.51
2018-05-21T21:34:21.001Z,43.30
2018-05-21T21:37:24.708Z,43.98
2018-05-21T21:40:27.304Z,44.12
2018-05-21T21:43:29.861Z,43.86
2018-05-21T21:46:32.512Z,44.59
2018-05-21T21:49:35.445Z,44.33
2018-05-21T21:52:38.117Z,44.77
2018-05-21T21:55:40.723Z,44.57
2018-05-21T21:58:43.363Z,44.51
2018-05-21T22:01:46.050Z,44.82
2018-05-21T22:04:48.646Z,45.03
2018-05-21T22:07:51.242Z,45.50
2018-05-21T22:10:53.898Z,45.99
2018-05-21T22:13:56.522Z,46.00
2018-05-21T22:16:59.102Z,46.51
2018-05-21T22:20:01.791Z,45.43
2018-05-21T22:23:04.362Z,46.13
2018-05-21T22:26:06.927Z,46.81
2018-05-21T22:29:09.476Z,47.02
2018-05-21T22:32:12.077Z,47.39
2018-05-21T22:35:14.631Z,47.54
2018-05-21T22:38:17.166Z,47.42
2018-05-21T22:41:19.812Z,48.02
2018-05-21T22:44:22.382Z,47.60
2018-05-21T22:47:27.475Z,47.93
2018-05-21T22:50:30.909Z,47.25
2018-05-21T22:53:33.436Z,48.46
2018-05-21T22:56:36.069Z,47.33
2018-05-21T22:59:43.159Z,47.77
2018-05-21T23:02:45.768Z,47.40
2018-05-21T23:05:56.994Z,47.68
2018-05-21T23:08:59.527Z,48.50
2018-05-21T23:12:02.216Z,47.49
2018-05-21T23:15:04.876Z,48.16
2018-05-21T23:18:07.494Z,48.55
2018-05-21T23:21:12.227Z,49.28
2018-05-21T23:24:15.635Z,49.26
2018-05-21T23:27:19.344Z,49.43
2018-05-21T23:30:22.698Z,48.99
2018-05-21T23:36:36.576Z,49.41
2018-05-21T23:39:39.191Z,49.31
2018-05-21T23:42:41.751Z,49.68
2018-05-21T23:45:44.312Z,49.00
2018-05-21T23:48:46.928Z,49.55
2018-05-21T23:51:49.618Z,49.02
2018-05-21T23:54:52.164Z,49.69
2018-05-21T23:57:54.706Z,50.04
